sensor_id;sensor_type;location;lat;lon;timestamp;temperature;humidity
44851;DHT22;30583;48.714;9.386;2022-09-27T00:01:46;12.90;76.30
44851;DHT22;30583;48.714;9.386;2022-09-27T00:04:11;13.00;76.10
44851;DHT22;30583;48.714;9.386;2022-09-27T00:06:37;13.10;76.00
44851;DHT22;30583;48.714;9.386;2022-09-27T00:09:02;13.10;75.90
44851;DHT22;30583;48.714;9.386;2022-09-27T00:11:29;12.90;76.90
44851;DHT22;30583;48.714;9.386;2022-09-27T00:13:56;12.70;77.00
44851;DHT22;30583;48.714;9.386;2022-09-27T00:16:24;12.70;77.50
44851;DHT22;30583;48.714;9.386;2022-09-27T00:18:49;12.70;77.70
44851;DHT22;30583;48.714;9.386;2022-09-27T00:21:15;12.70;77.80
44851;DHT22;30583;48.714;9.386;2022-09-27T00:23:41;12.90;77.60
44851;DHT22;30583;48.714;9.386;2022-09-27T00:26:07;12.70;78.70
44851;DHT22;30583;48.714;9.386;2022-09-27T00:28:33;12.80;78.20
44851;DHT22;30583;48.714;9.386;2022-09-27T00:30:58;12.90;77.90
44851;DHT22;30583;48.714;9.386;2022-09-27T00:33:25;12.90;77.30
44851;DHT22;30583;48.714;9.386;2022-09-27T00:35:51;12.70;77.70
44851;DHT22;30583;48.714;9.386;2022-09-27T00:38:16;12.60;77.80
44851;DHT22;30583;48.714;9.386;2022-09-27T00:40:42;12.60;77.30
44851;DHT22;30583;48.714;9.386;2022-09-27T00:43:15;12.20;77.30
44851;DHT22;30583;48.714;9.386;2022-09-27T00:45:41;12.20;78.60
44851;DHT22;30583;48.714;9.386;2022-09-27T00:48:06;12.40;77.80
44851;DHT22;30583;48.714;9.386;2022-09-27T00:50:36;12.40;77.60
44851;DHT22;30583;48.714;9.386;2022-09-27T00:53:03;12.40;78.20
44851;DHT22;30583;48.714;9.386;2022-09-27T00:55:37;12.60;77.90
44851;DHT22;30583;48.714;9.386;2022-09-27T00:58:04;12.50;77.10
44851;DHT22;30583;48.714;9.386;2022-09-27T01:00:30;12.30;78.10
44851;DHT22;30583;48.714;9.386;2022-09-27T01:02:56;12.30;77.40
44851;DHT22;30583;48.714;9.386;2022-09-27T01:05:23;12.40;77.20
44851;DHT22;30583;48.714;9.386;2022-09-27T01:07:50;12.50;77.80
44851;DHT22;30583;48.714;9.386;2022-09-27T01:10:15;12.50;78.40
44851;DHT22;30583;48.714;9.386;2022-09-27T01:13:00;12.50;77.90
44851;DHT22;30583;48.714;9.386;2022-09-27T01:15:47;12.70;77.60
44851;DHT22;30583;48.714;9.386;2022-09-27T01:18:26;12.50;78.00
44851;DHT22;30583;48.714;9.386;2022-09-27T01:26:15;12.40;78.30
44851;DHT22;30583;48.714;9.386;2022-09-27T01:44:31;12.40;77.70
44851;DHT22;30583;48.714;9.386;2022-09-27T01:47:00;12.50;77.80
44851;DHT22;30583;48.714;9.386;2022-09-27T01:52:11;12.10;78.60
44851;DHT22;30583;48.714;9.386;2022-09-27T01:54:42;12.00;78.70
44851;DHT22;30583;48.714;9.386;2022-09-27T01:57:08;12.20;78.50
44851;DHT22;30583;48.714;9.386;2022-09-27T01:59:46;11.90;79.10
44851;DHT22;30583;48.714;9.386;2022-09-27T02:02:13;12.20;78.60
44851;DHT22;30583;48.714;9.386;2022-09-27T02:04:41;12.10;78.30
44851;DHT22;30583;48.714;9.386;2022-09-27T02:07:14;12.10;78.30
44851;DHT22;30583;48.714;9.386;2022-09-27T02:09:51;12.20;78.40
44851;DHT22;30583;48.714;9.386;2022-09-27T02:12:19;12.10;78.80
44851;DHT22;30583;48.714;9.386;2022-09-27T02:14:51;12.20;78.50
44851;DHT22;30583;48.714;9.386;2022-09-27T02:19:56;12.10;79.10
44851;DHT22;30583;48.714;9.386;2022-09-27T02:22:36;12.20;78.90
44851;DHT22;30583;48.714;9.386;2022-09-27T02:27:35;12.20;78.80
44851;DHT22;30583;48.714;9.386;2022-09-27T02:30:05;12.10;79.40
44851;DHT22;30583;48.714;9.386;2022-09-27T02:32:31;11.70;80.30
44851;DHT22;30583;48.714;9.386;2022-09-27T02:35:01;11.90;80.70
44851;DHT22;30583;48.714;9.386;2022-09-27T02:37:28;11.70;81.40
44851;DHT22;30583;48.714;9.386;2022-09-27T02:39:54;11.70;81.50
44851;DHT22;30583;48.714;9.386;2022-09-27T02:42:19;11.60;82.00
44851;DHT22;30583;48.714;9.386;2022-09-27T02:44:45;11.50;82.50
44851;DHT22;30583;48.714;9.386;2022-09-27T02:49:42;11.40;82.80
44851;DHT22;30583;48.714;9.386;2022-09-27T03:02:20;11.40;82.50
44851;DHT22;30583;48.714;9.386;2022-09-27T03:05:34;11.50;82.20
44851;DHT22;30583;48.714;9.386;2022-09-27T03:07:33;11.40;82.20
44851;DHT22;30583;48.714;9.386;2022-09-27T03:09:59;11.60;81.70
44851;DHT22;30583;48.714;9.386;2022-09-27T03:12:25;11.50;82.00
44851;DHT22;30583;48.714;9.386;2022-09-27T03:14:51;11.50;81.40
44851;DHT22;30583;48.714;9.386;2022-09-27T03:17:17;11.20;82.00
44851;DHT22;30583;48.714;9.386;2022-09-27T03:19:42;11.60;81.50
44851;DHT22;30583;48.714;9.386;2022-09-27T03:22:08;11.50;80.80
44851;DHT22;30583;48.714;9.386;2022-09-27T03:24:34;11.60;80.00
44851;DHT22;30583;48.714;9.386;2022-09-27T03:26:59;11.50;79.80
44851;DHT22;30583;48.714;9.386;2022-09-27T03:29:26;11.40;79.40
44851;DHT22;30583;48.714;9.386;2022-09-27T03:31:52;11.50;78.90
44851;DHT22;30583;48.714;9.386;2022-09-27T03:34:17;11.30;78.10
44851;DHT22;30583;48.714;9.386;2022-09-27T03:36:43;11.50;78.50
44851;DHT22;30583;48.714;9.386;2022-09-27T03:39:09;11.70;77.90
44851;DHT22;30583;48.714;9.386;2022-09-27T03:41:35;11.50;76.60
44851;DHT22;30583;48.714;9.386;2022-09-27T03:44:00;11.30;77.40
44851;DHT22;30583;48.714;9.386;2022-09-27T03:46:26;11.40;77.00
44851;DHT22;30583;48.714;9.386;2022-09-27T03:48:51;11.30;77.30
44851;DHT22;30583;48.714;9.386;2022-09-27T03:51:17;11.20;77.30
44851;DHT22;30583;48.714;9.386;2022-09-27T03:53:42;11.40;76.90
44851;DHT22;30583;48.714;9.386;2022-09-27T03:56:08;11.40;76.10
44851;DHT22;30583;48.714;9.386;2022-09-27T03:58:34;11.30;77.00
44851;DHT22;30583;48.714;9.386;2022-09-27T04:00:59;11.40;77.10
44851;DHT22;30583;48.714;9.386;2022-09-27T04:03:25;11.60;76.70
44851;DHT22;30583;48.714;9.386;2022-09-27T04:05:51;11.60;76.40
44851;DHT22;30583;48.714;9.386;2022-09-27T04:08:17;11.40;76.60
44851;DHT22;30583;48.714;9.386;2022-09-27T04:10:43;11.40;76.70
44851;DHT22;30583;48.714;9.386;2022-09-27T04:13:08;11.50;77.00
44851;DHT22;30583;48.714;9.386;2022-09-27T04:15:34;11.20;77.80
44851;DHT22;30583;48.714;9.386;2022-09-27T04:17:59;11.20;78.10
44851;DHT22;30583;48.714;9.386;2022-09-27T04:20:25;11.00;78.30
44851;DHT22;30583;48.714;9.386;2022-09-27T04:22:50;11.20;78.20
44851;DHT22;30583;48.714;9.386;2022-09-27T04:25:16;11.40;78.20
44851;DHT22;30583;48.714;9.386;2022-09-27T04:27:44;11.40;77.70
44851;DHT22;30583;48.714;9.386;2022-09-27T04:30:10;11.40;78.20
44851;DHT22;30583;48.714;9.386;2022-09-27T04:32:45;11.70;78.00
44851;DHT22;30583;48.714;9.386;2022-09-27T04:35:11;11.60;77.80
44851;DHT22;30583;48.714;9.386;2022-09-27T04:37:55;11.70;78.40
44851;DHT22;30583;48.714;9.386;2022-09-27T04:40:21;11.20;79.20
44851;DHT22;30583;48.714;9.386;2022-09-27T04:42:47;11.20;79.30
44851;DHT22;30583;48.714;9.386;2022-09-27T04:45:12;11.20;79.30
44851;DHT22;30583;48.714;9.386;2022-09-27T04:47:44;11.10;80.00
44851;DHT22;30583;48.714;9.386;2022-09-27T04:50:10;10.90;80.60
44851;DHT22;30583;48.714;9.386;2022-09-27T04:52:36;11.30;79.20
44851;DHT22;30583;48.714;9.386;2022-09-27T04:55:02;11.10;79.90
44851;DHT22;30583;48.714;9.386;2022-09-27T04:57:28;11.40;79.50
44851;DHT22;30583;48.714;9.386;2022-09-27T04:59:53;11.30;79.40
44851;DHT22;30583;48.714;9.386;2022-09-27T05:02:19;11.40;79.20
44851;DHT22;30583;48.714;9.386;2022-09-27T05:04:44;11.10;79.50
44851;DHT22;30583;48.714;9.386;2022-09-27T05:07:10;11.10;79.80
44851;DHT22;30583;48.714;9.386;2022-09-27T05:09:35;11.00;79.90
44851;DHT22;30583;48.714;9.386;2022-09-27T05:12:01;11.50;79.20
44851;DHT22;30583;48.714;9.386;2022-09-27T05:14:26;11.60;78.30
44851;DHT22;30583;48.714;9.386;2022-09-27T05:16:52;11.70;78.00
44851;DHT22;30583;48.714;9.386;2022-09-27T05:19:18;11.00;79.80
44851;DHT22;30583;48.714;9.386;2022-09-27T05:21:44;11.20;80.40
44851;DHT22;30583;48.714;9.386;2022-09-27T05:24:09;11.20;79.30
44851;DHT22;30583;48.714;9.386;2022-09-27T05:26:34;11.40;78.80
44851;DHT22;30583;48.714;9.386;2022-09-27T05:29:02;11.30;78.90
44851;DHT22;30583;48.714;9.386;2022-09-27T05:31:27;11.80;84.60
44851;DHT22;30583;48.714;9.386;2022-09-27T05:33:54;15.20;72.60
44851;DHT22;30583;48.714;9.386;2022-09-27T05:36:20;16.20;68.60
44851;DHT22;30583;48.714;9.386;2022-09-27T05:38:45;14.70;69.30
44851;DHT22;30583;48.714;9.386;2022-09-27T05:41:11;14.80;67.90
44851;DHT22;30583;48.714;9.386;2022-09-27T05:43:37;16.10;67.70
44851;DHT22;30583;48.714;9.386;2022-09-27T05:46:03;17.10;62.70
44851;DHT22;30583;48.714;9.386;2022-09-27T05:48:29;16.70;62.90
44851;DHT22;30583;48.714;9.386;2022-09-27T05:50:55;16.20;60.90
44851;DHT22;30583;48.714;9.386;2022-09-27T05:53:21;15.70;63.40
44851;DHT22;30583;48.714;9.386;2022-09-27T05:55:46;15.00;66.20
44851;DHT22;30583;48.714;9.386;2022-09-27T05:58:13;16.60;63.30
44851;DHT22;30583;48.714;9.386;2022-09-27T06:00:40;16.60;61.80
44851;DHT22;30583;48.714;9.386;2022-09-27T06:03:06;16.40;63.10
44851;DHT22;30583;48.714;9.386;2022-09-27T06:05:35;15.20;61.00
44851;DHT22;30583;48.714;9.386;2022-09-27T06:08:03;11.80;74.30
44851;DHT22;30583;48.714;9.386;2022-09-27T06:10:29;11.70;75.70
44851;DHT22;30583;48.714;9.386;2022-09-27T06:13:01;11.40;77.00
44851;DHT22;30583;48.714;9.386;2022-09-27T06:15:27;11.30;77.50
44851;DHT22;30583;48.714;9.386;2022-09-27T06:17:54;10.90;79.40
44851;DHT22;30583;48.714;9.386;2022-09-27T06:20:19;11.70;77.40
44851;DHT22;30583;48.714;9.386;2022-09-27T06:22:45;11.60;77.10
44851;DHT22;30583;48.714;9.386;2022-09-27T06:25:11;11.80;76.70
44851;DHT22;30583;48.714;9.386;2022-09-27T06:27:36;11.80;76.80
44851;DHT22;30583;48.714;9.386;2022-09-27T06:30:03;11.60;77.30
44851;DHT22;30583;48.714;9.386;2022-09-27T06:32:28;11.60;77.60
44851;DHT22;30583;48.714;9.386;2022-09-27T06:34:54;11.30;78.60
44851;DHT22;30583;48.714;9.386;2022-09-27T06:37:19;11.40;77.70
44851;DHT22;30583;48.714;9.386;2022-09-27T06:39:45;11.50;77.70
44851;DHT22;30583;48.714;9.386;2022-09-27T06:42:13;11.20;78.50
44851;DHT22;30583;48.714;9.386;2022-09-27T06:44:38;11.00;78.60
44851;DHT22;30583;48.714;9.386;2022-09-27T06:47:04;10.80;79.10
44851;DHT22;30583;48.714;9.386;2022-09-27T06:49:29;10.70;80.10
44851;DHT22;30583;48.714;9.386;2022-09-27T06:51:55;11.10;79.40
44851;DHT22;30583;48.714;9.386;2022-09-27T06:54:21;11.40;78.50
44851;DHT22;30583;48.714;9.386;2022-09-27T06:56:46;11.40;78.50
44851;DHT22;30583;48.714;9.386;2022-09-27T06:59:12;11.40;78.00
44851;DHT22;30583;48.714;9.386;2022-09-27T07:01:56;11.30;78.30
44851;DHT22;30583;48.714;9.386;2022-09-27T07:04:22;11.20;77.90
44851;DHT22;30583;48.714;9.386;2022-09-27T07:06:48;11.10;78.70
44851;DHT22;30583;48.714;9.386;2022-09-27T07:09:13;11.20;76.90
44851;DHT22;30583;48.714;9.386;2022-09-27T07:11:39;11.20;77.20
44851;DHT22;30583;48.714;9.386;2022-09-27T07:14:08;11.20;78.40
44851;DHT22;30583;48.714;9.386;2022-09-27T07:16:34;11.00;77.70
44851;DHT22;30583;48.714;9.386;2022-09-27T07:19:00;11.00;78.40
44851;DHT22;30583;48.714;9.386;2022-09-27T07:21:26;11.10;77.40
44851;DHT22;30583;48.714;9.386;2022-09-27T07:23:51;11.20;77.40
44851;DHT22;30583;48.714;9.386;2022-09-27T07:26:17;11.20;76.60
44851;DHT22;30583;48.714;9.386;2022-09-27T07:28:43;11.20;77.10
44851;DHT22;30583;48.714;9.386;2022-09-27T07:31:09;11.20;76.70
44851;DHT22;30583;48.714;9.386;2022-09-27T07:33:35;11.10;76.30
44851;DHT22;30583;48.714;9.386;2022-09-27T07:36:05;11.10;77.40
44851;DHT22;30583;48.714;9.386;2022-09-27T07:38:31;11.40;76.40
44851;DHT22;30583;48.714;9.386;2022-09-27T07:40:56;11.60;75.20
44851;DHT22;30583;48.714;9.386;2022-09-27T07:43:22;11.60;75.40
44851;DHT22;30583;48.714;9.386;2022-09-27T07:45:47;11.50;75.50
44851;DHT22;30583;48.714;9.386;2022-09-27T07:48:14;11.50;75.10
44851;DHT22;30583;48.714;9.386;2022-09-27T07:50:39;11.10;75.00
44851;DHT22;30583;48.714;9.386;2022-09-27T07:53:05;11.30;75.10
44851;DHT22;30583;48.714;9.386;2022-09-27T07:55:30;11.50;73.60
44851;DHT22;30583;48.714;9.386;2022-09-27T07:58:03;11.60;74.10
44851;DHT22;30583;48.714;9.386;2022-09-27T08:00:29;11.70;74.20
44851;DHT22;30583;48.714;9.386;2022-09-27T08:02:54;11.90;73.50
44851;DHT22;30583;48.714;9.386;2022-09-27T08:05:20;11.60;73.40
44851;DHT22;30583;48.714;9.386;2022-09-27T08:07:45;11.70;73.90
44851;DHT22;30583;48.714;9.386;2022-09-27T08:10:11;11.60;74.20
44851;DHT22;30583;48.714;9.386;2022-09-27T08:12:37;11.60;73.50
44851;DHT22;30583;48.714;9.386;2022-09-27T08:15:02;11.70;73.40
44851;DHT22;30583;48.714;9.386;2022-09-27T08:17:29;11.70;72.60
44851;DHT22;30583;48.714;9.386;2022-09-27T08:19:54;11.70;72.90
44851;DHT22;30583;48.714;9.386;2022-09-27T08:22:20;11.90;72.40
44851;DHT22;30583;48.714;9.386;2022-09-27T08:24:46;11.80;72.00
44851;DHT22;30583;48.714;9.386;2022-09-27T08:27:12;11.70;72.70
44851;DHT22;30583;48.714;9.386;2022-09-27T08:29:38;11.60;72.40
44851;DHT22;30583;48.714;9.386;2022-09-27T08:32:06;11.80;72.20
44851;DHT22;30583;48.714;9.386;2022-09-27T08:34:32;11.90;72.90
44851;DHT22;30583;48.714;9.386;2022-09-27T08:36:57;11.70;72.80
44851;DHT22;30583;48.714;9.386;2022-09-27T08:39:24;11.70;72.50
44851;DHT22;30583;48.714;9.386;2022-09-27T08:51:53;12.10;70.40
44851;DHT22;30583;48.714;9.386;2022-09-27T08:54:23;12.00;70.20
44851;DHT22;30583;48.714;9.386;2022-09-27T08:56:51;12.00;70.50
44851;DHT22;30583;48.714;9.386;2022-09-27T08:59:18;12.10;70.70
44851;DHT22;30583;48.714;9.386;2022-09-27T09:01:49;12.30;69.30
44851;DHT22;30583;48.714;9.386;2022-09-27T09:04:37;12.00;68.80
44851;DHT22;30583;48.714;9.386;2022-09-27T09:07:05;12.20;69.20
44851;DHT22;30583;48.714;9.386;2022-09-27T09:09:36;12.20;69.40
44851;DHT22;30583;48.714;9.386;2022-09-27T09:15:01;11.10;75.30
44851;DHT22;30583;48.714;9.386;2022-09-27T09:25:17;11.70;75.10
44851;DHT22;30583;48.714;9.386;2022-09-27T09:30:51;11.50;73.40
44851;DHT22;30583;48.714;9.386;2022-09-27T09:38:44;12.20;69.70
44851;DHT22;30583;48.714;9.386;2022-09-27T09:41:15;12.40;69.20
44851;DHT22;30583;48.714;9.386;2022-09-27T09:43:51;12.90;67.50
44851;DHT22;30583;48.714;9.386;2022-09-27T09:48:59;13.50;66.10
44851;DHT22;30583;48.714;9.386;2022-09-27T09:51:28;13.40;64.90
44851;DHT22;30583;48.714;9.386;2022-09-27T09:53:57;13.30;64.80
44851;DHT22;30583;48.714;9.386;2022-09-27T09:56:28;13.70;64.40
44851;DHT22;30583;48.714;9.386;2022-09-27T10:01:21;14.10;63.50
44851;DHT22;30583;48.714;9.386;2022-09-27T10:03:47;13.50;63.60
44851;DHT22;30583;48.714;9.386;2022-09-27T10:06:13;13.70;61.00
44851;DHT22;30583;48.714;9.386;2022-09-27T10:08:40;13.40;62.70
44851;DHT22;30583;48.714;9.386;2022-09-27T10:11:06;14.30;63.50
44851;DHT22;30583;48.714;9.386;2022-09-27T10:13:33;14.50;61.40
44851;DHT22;30583;48.714;9.386;2022-09-27T10:16:01;13.80;61.40
44851;DHT22;30583;48.714;9.386;2022-09-27T10:18:28;14.20;61.50
44851;DHT22;30583;48.714;9.386;2022-09-27T10:20:55;14.10;59.00
44851;DHT22;30583;48.714;9.386;2022-09-27T10:23:21;14.20;58.90
44851;DHT22;30583;48.714;9.386;2022-09-27T10:25:59;14.50;59.70
44851;DHT22;30583;48.714;9.386;2022-09-27T10:28:38;15.30;57.30
44851;DHT22;30583;48.714;9.386;2022-09-27T10:31:08;15.20;56.90
44851;DHT22;30583;48.714;9.386;2022-09-27T10:33:54;15.50;54.30
44851;DHT22;30583;48.714;9.386;2022-09-27T10:36:24;15.10;54.80
44851;DHT22;30583;48.714;9.386;2022-09-27T10:38:51;15.30;57.10
44851;DHT22;30583;48.714;9.386;2022-09-27T10:41:22;14.90;55.50
44851;DHT22;30583;48.714;9.386;2022-09-27T10:43:48;14.50;57.20
44851;DHT22;30583;48.714;9.386;2022-09-27T10:46:26;14.40;56.50
44851;DHT22;30583;48.714;9.386;2022-09-27T10:51:40;13.60;58.20
44851;DHT22;30583;48.714;9.386;2022-09-27T10:54:15;13.60;59.80
44851;DHT22;30583;48.714;9.386;2022-09-27T10:56:41;13.70;59.00
44851;DHT22;30583;48.714;9.386;2022-09-27T10:59:12;13.70;60.90
44851;DHT22;30583;48.714;9.386;2022-09-27T11:01:43;13.60;62.20
44851;DHT22;30583;48.714;9.386;2022-09-27T11:04:16;13.70;61.90
44851;DHT22;30583;48.714;9.386;2022-09-27T11:06:43;13.70;61.70
44851;DHT22;30583;48.714;9.386;2022-09-27T11:09:21;14.00;61.30
44851;DHT22;30583;48.714;9.386;2022-09-27T11:12:04;13.90;61.50
44851;DHT22;30583;48.714;9.386;2022-09-27T11:14:29;14.60;61.40
44851;DHT22;30583;48.714;9.386;2022-09-27T11:30:10;14.00;61.80
44851;DHT22;30583;48.714;9.386;2022-09-27T11:43:14;14.10;58.90
44851;DHT22;30583;48.714;9.386;2022-09-27T11:45:49;13.90;58.90
44851;DHT22;30583;48.714;9.386;2022-09-27T11:53:44;13.90;59.50
44851;DHT22;30583;48.714;9.386;2022-09-27T12:01:37;13.60;60.40
44851;DHT22;30583;48.714;9.386;2022-09-27T12:06:46;13.30;61.30
44851;DHT22;30583;48.714;9.386;2022-09-27T12:09:19;13.30;60.80
44851;DHT22;30583;48.714;9.386;2022-09-27T12:12:00;13.30;60.40
44851;DHT22;30583;48.714;9.386;2022-09-27T12:14:38;13.50;60.30
44851;DHT22;30583;48.714;9.386;2022-09-27T12:17:06;13.50;61.00
44851;DHT22;30583;48.714;9.386;2022-09-27T12:19:37;13.30;61.00
44851;DHT22;30583;48.714;9.386;2022-09-27T12:22:04;13.30;61.70
44851;DHT22;30583;48.714;9.386;2022-09-27T12:24:30;13.50;61.70
44851;DHT22;30583;48.714;9.386;2022-09-27T12:27:02;13.30;61.80
44851;DHT22;30583;48.714;9.386;2022-09-27T12:29:32;13.30;62.70
44851;DHT22;30583;48.714;9.386;2022-09-27T12:34:36;13.10;65.90
44851;DHT22;30583;48.714;9.386;2022-09-27T12:37:11;12.60;68.30
44851;DHT22;30583;48.714;9.386;2022-09-27T12:39:49;12.30;71.70
44851;DHT22;30583;48.714;9.386;2022-09-27T12:42:19;12.70;71.90
44851;DHT22;30583;48.714;9.386;2022-09-27T12:44:45;13.00;71.00
44851;DHT22;30583;48.714;9.386;2022-09-27T12:50:03;12.80;71.90
44851;DHT22;30583;48.714;9.386;2022-09-27T12:52:30;12.90;70.50
44851;DHT22;30583;48.714;9.386;2022-09-27T12:55:04;13.20;67.10
44851;DHT22;30583;48.714;9.386;2022-09-27T13:02:46;12.80;68.70
44851;DHT22;30583;48.714;9.386;2022-09-27T13:13:00;12.20;70.50
44851;DHT22;30583;48.714;9.386;2022-09-27T13:15:30;12.40;70.20
44851;DHT22;30583;48.714;9.386;2022-09-27T13:17:56;12.70;69.80
44851;DHT22;30583;48.714;9.386;2022-09-27T13:22:52;12.30;71.80
44851;DHT22;30583;48.714;9.386;2022-09-27T13:28:21;12.70;70.40
44851;DHT22;30583;48.714;9.386;2022-09-27T13:30:49;12.40;70.90
44851;DHT22;30583;48.714;9.386;2022-09-27T13:35:41;13.00;69.70
44851;DHT22;30583;48.714;9.386;2022-09-27T13:38:20;13.00;69.70
44851;DHT22;30583;48.714;9.386;2022-09-27T13:40:46;13.00;70.30
44851;DHT22;30583;48.714;9.386;2022-09-27T13:46:03;12.90;70.70
44851;DHT22;30583;48.714;9.386;2022-09-27T13:48:44;13.00;70.00
44851;DHT22;30583;48.714;9.386;2022-09-27T13:51:23;12.90;70.60
44851;DHT22;30583;48.714;9.386;2022-09-27T13:54:05;12.50;71.10
44851;DHT22;30583;48.714;9.386;2022-09-27T13:59:11;12.70;70.90
44851;DHT22;30583;48.714;9.386;2022-09-27T14:01:39;12.80;70.60
44851;DHT22;30583;48.714;9.386;2022-09-27T14:06:49;12.90;70.50
44851;DHT22;30583;48.714;9.386;2022-09-27T14:09:17;13.10;69.80
44851;DHT22;30583;48.714;9.386;2022-09-27T14:11:47;13.20;69.50
44851;DHT22;30583;48.714;9.386;2022-09-27T14:14:16;13.30;69.00
44851;DHT22;30583;48.714;9.386;2022-09-27T14:16:42;12.80;69.40
44851;DHT22;30583;48.714;9.386;2022-09-27T14:19:23;13.10;69.40
44851;DHT22;30583;48.714;9.386;2022-09-27T14:21:50;13.40;67.80
44851;DHT22;30583;48.714;9.386;2022-09-27T14:24:29;13.30;67.10
44851;DHT22;30583;48.714;9.386;2022-09-27T14:29:30;13.20;68.20
44851;DHT22;30583;48.714;9.386;2022-09-27T14:32:01;13.00;65.70
44851;DHT22;30583;48.714;9.386;2022-09-27T14:34:27;13.00;65.30
44851;DHT22;30583;48.714;9.386;2022-09-27T14:36:53;12.90;65.40
44851;DHT22;30583;48.714;9.386;2022-09-27T14:39:37;12.90;63.50
44851;DHT22;30583;48.714;9.386;2022-09-27T14:42:04;12.60;68.00
44851;DHT22;30583;48.714;9.386;2022-09-27T14:44:30;12.50;69.80
44851;DHT22;30583;48.714;9.386;2022-09-27T14:52:19;12.50;69.40
44851;DHT22;30583;48.714;9.386;2022-09-27T14:55:05;12.40;69.90
44851;DHT22;30583;48.714;9.386;2022-09-27T14:57:31;12.30;70.30
44851;DHT22;30583;48.714;9.386;2022-09-27T15:00:20;12.70;69.70
44851;DHT22;30583;48.714;9.386;2022-09-27T15:02:45;12.40;70.00
44851;DHT22;30583;48.714;9.386;2022-09-27T15:05:18;12.20;71.90
44851;DHT22;30583;48.714;9.386;2022-09-27T15:07:44;12.30;71.00
44851;DHT22;30583;48.714;9.386;2022-09-27T15:10:17;12.70;69.30
44851;DHT22;30583;48.714;9.386;2022-09-27T15:12:43;12.90;69.20
44851;DHT22;30583;48.714;9.386;2022-09-27T15:15:15;13.10;69.10
44851;DHT22;30583;48.714;9.386;2022-09-27T15:17:44;13.20;69.10
44851;DHT22;30583;48.714;9.386;2022-09-27T15:20:23;14.00;67.40
44851;DHT22;30583;48.714;9.386;2022-09-27T15:22:51;14.20;66.60
44851;DHT22;30583;48.714;9.386;2022-09-27T15:27:53;14.00;64.10
44851;DHT22;30583;48.714;9.386;2022-09-27T15:30:32;14.20;65.00
44851;DHT22;30583;48.714;9.386;2022-09-27T15:32:58;14.50;62.50
44851;DHT22;30583;48.714;9.386;2022-09-27T15:35:26;13.40;61.20
44851;DHT22;30583;48.714;9.386;2022-09-27T15:38:08;13.70;60.00
44851;DHT22;30583;48.714;9.386;2022-09-27T15:43:21;13.20;59.30
44851;DHT22;30583;48.714;9.386;2022-09-27T15:45:54;13.20;59.90
44851;DHT22;30583;48.714;9.386;2022-09-27T15:48:20;13.90;62.40
44851;DHT22;30583;48.714;9.386;2022-09-27T15:50:46;12.80;61.30
44851;DHT22;30583;48.714;9.386;2022-09-27T15:53:38;12.80;60.90
44851;DHT22;30583;48.714;9.386;2022-09-27T15:55:57;12.60;62.50
44851;DHT22;30583;48.714;9.386;2022-09-27T15:58:23;12.50;62.00
44851;DHT22;30583;48.714;9.386;2022-09-27T16:00:49;12.50;63.00
44851;DHT22;30583;48.714;9.386;2022-09-27T16:03:15;12.40;63.10
44851;DHT22;30583;48.714;9.386;2022-09-27T16:05:41;12.40;63.40
44851;DHT22;30583;48.714;9.386;2022-09-27T16:08:09;12.50;64.10
44851;DHT22;30583;48.714;9.386;2022-09-27T16:10:35;12.70;63.20
44851;DHT22;30583;48.714;9.386;2022-09-27T16:13:02;12.40;64.90
44851;DHT22;30583;48.714;9.386;2022-09-27T16:15:27;12.20;64.30
44851;DHT22;30583;48.714;9.386;2022-09-27T16:17:53;12.40;64.60
44851;DHT22;30583;48.714;9.386;2022-09-27T16:20:20;12.50;64.00
44851;DHT22;30583;48.714;9.386;2022-09-27T16:22:47;12.30;64.50
44851;DHT22;30583;48.714;9.386;2022-09-27T16:25:13;12.40;64.60
44851;DHT22;30583;48.714;9.386;2022-09-27T16:27:38;12.50;63.80
44851;DHT22;30583;48.714;9.386;2022-09-27T16:30:04;12.50;64.20
44851;DHT22;30583;48.714;9.386;2022-09-27T16:32:29;12.50;63.50
44851;DHT22;30583;48.714;9.386;2022-09-27T16:34:55;12.30;64.30
44851;DHT22;30583;48.714;9.386;2022-09-27T16:37:21;12.30;64.10
44851;DHT22;30583;48.714;9.386;2022-09-27T16:39:47;12.30;63.40
44851;DHT22;30583;48.714;9.386;2022-09-27T16:42:12;12.20;63.60
44851;DHT22;30583;48.714;9.386;2022-09-27T16:44:38;12.30;63.60
44851;DHT22;30583;48.714;9.386;2022-09-27T16:47:04;12.20;63.10
44851;DHT22;30583;48.714;9.386;2022-09-27T16:49:31;12.20;61.60
44851;DHT22;30583;48.714;9.386;2022-09-27T16:52:16;12.20;62.10
44851;DHT22;30583;48.714;9.386;2022-09-27T16:54:41;12.20;62.10
44851;DHT22;30583;48.714;9.386;2022-09-27T16:57:07;12.20;62.70
44851;DHT22;30583;48.714;9.386;2022-09-27T16:59:32;12.10;62.60
44851;DHT22;30583;48.714;9.386;2022-09-27T17:01:58;12.20;62.50
44851;DHT22;30583;48.714;9.386;2022-09-27T17:04:24;12.20;62.00
44851;DHT22;30583;48.714;9.386;2022-09-27T17:06:50;12.30;61.90
44851;DHT22;30583;48.714;9.386;2022-09-27T17:09:15;12.00;62.40
44851;DHT22;30583;48.714;9.386;2022-09-27T17:11:41;12.00;62.90
44851;DHT22;30583;48.714;9.386;2022-09-27T17:14:08;11.90;62.70
44851;DHT22;30583;48.714;9.386;2022-09-27T17:16:34;12.00;63.20
44851;DHT22;30583;48.714;9.386;2022-09-27T17:18:59;12.10;62.40
44851;DHT22;30583;48.714;9.386;2022-09-27T17:21:26;12.10;62.60
44851;DHT22;30583;48.714;9.386;2022-09-27T17:23:51;11.80;63.50
44851;DHT22;30583;48.714;9.386;2022-09-27T17:26:21;12.00;62.90
44851;DHT22;30583;48.714;9.386;2022-09-27T17:28:47;11.70;62.80
44851;DHT22;30583;48.714;9.386;2022-09-27T17:31:14;11.80;63.30
44851;DHT22;30583;48.714;9.386;2022-09-27T17:33:42;11.90;63.30
44851;DHT22;30583;48.714;9.386;2022-09-27T17:36:10;11.90;63.80
44851;DHT22;30583;48.714;9.386;2022-09-27T17:38:36;12.10;63.40
44851;DHT22;30583;48.714;9.386;2022-09-27T17:41:03;12.10;63.60
44851;DHT22;30583;48.714;9.386;2022-09-27T17:43:29;11.90;63.90
44851;DHT22;30583;48.714;9.386;2022-09-27T17:46:02;11.80;64.50
44851;DHT22;30583;48.714;9.386;2022-09-27T17:48:28;11.70;65.50
44851;DHT22;30583;48.714;9.386;2022-09-27T17:51:12;11.50;65.60
44851;DHT22;30583;48.714;9.386;2022-09-27T17:53:39;11.70;65.40
44851;DHT22;30583;48.714;9.386;2022-09-27T17:56:04;11.90;65.10
44851;DHT22;30583;48.714;9.386;2022-09-27T17:58:30;11.60;65.40
44851;DHT22;30583;48.714;9.386;2022-09-27T18:01:00;11.60;65.60
44851;DHT22;30583;48.714;9.386;2022-09-27T18:03:27;11.50;66.40
44851;DHT22;30583;48.714;9.386;2022-09-27T18:05:53;11.40;67.30
44851;DHT22;30583;48.714;9.386;2022-09-27T18:08:18;11.50;67.90
44851;DHT22;30583;48.714;9.386;2022-09-27T18:10:44;11.60;69.30
44851;DHT22;30583;48.714;9.386;2022-09-27T18:13:09;11.10;69.50
44851;DHT22;30583;48.714;9.386;2022-09-27T18:15:34;11.10;70.50
44851;DHT22;30583;48.714;9.386;2022-09-27T18:18:01;11.00;72.10
44851;DHT22;30583;48.714;9.386;2022-09-27T18:20:32;10.90;72.10